sensor_id;sensor_type;location;lat;lon;timestamp;pressure;altitude;pressure_sealevel;temperature;humidity
75317;BME280;63913;51.492;10.368;2023-03-29T00:01:46;98731.63;;;4.65;54.80
75317;BME280;63913;51.492;10.368;2023-03-29T00:04:12;98726.53;;;4.65;54.09
75317;BME280;63913;51.492;10.368;2023-03-29T00:06:38;98724.66;;;4.60;54.11
75317;BME280;63913;51.492;10.368;2023-03-29T00:09:04;98723.63;;;4.57;54.49
75317;BME280;63913;51.492;10.368;2023-03-29T00:11:30;98724.66;;;4.60;54.67
75317;BME280;63913;51.492;10.368;2023-03-29T00:13:55;98730.56;;;4.59;54.07
75317;BME280;63913;51.492;10.368;2023-03-29T00:16:21;98730.56;;;4.59;54.41
75317;BME280;63913;51.492;10.368;2023-03-29T00:18:46;98727.75;;;4.55;54.31
75317;BME280;63913;51.492;10.368;2023-03-29T00:21:12;98733.81;;;4.57;54.74
75317;BME280;63913;51.492;10.368;2023-03-29T00:23:37;98727.72;;;4.53;53.76
75317;BME280;63913;51.492;10.368;2023-03-29T00:26:02;98730.56;;;4.59;54.87
75317;BME280;63913;51.492;10.368;2023-03-29T00:28:28;98723.50;;;4.54;54.71
75317;BME280;63913;51.492;10.368;2023-03-29T00:31:05;98725.38;;;4.58;55.26
75317;BME280;63913;51.492;10.368;2023-03-29T00:33:38;98718.53;;;4.57;54.93
75317;BME280;63913;51.492;10.368;2023-03-29T00:36:04;98720.19;;;4.56;55.16
75317;BME280;63913;51.492;10.368;2023-03-29T00:38:31;98724.13;;;4.50;55.54
75317;BME280;63913;51.492;10.368;2023-03-29T00:40:57;98715.66;;;4.33;55.75
75317;BME280;63913;51.492;10.368;2023-03-29T00:43:23;98702.34;;;4.39;56.72
75317;BME280;63913;51.492;10.368;2023-03-29T00:45:48;98705.94;;;4.42;57.03
75317;BME280;63913;51.492;10.368;2023-03-29T00:48:23;98704.34;;;4.44;57.40
75317;BME280;63913;51.492;10.368;2023-03-29T00:50:53;98703.09;;;4.36;57.23
75317;BME280;63913;51.492;10.368;2023-03-29T00:53:29;98702.50;;;4.42;58.01
75317;BME280;63913;51.492;10.368;2023-03-29T00:56:02;98700.53;;;4.36;58.87
75317;BME280;63913;51.492;10.368;2023-03-29T00:58:53;98702.63;;;4.27;59.29
75317;BME280;63913;51.492;10.368;2023-03-29T01:01:24;98696.88;;;4.31;60.02
75317;BME280;63913;51.492;10.368;2023-03-29T01:04:07;98694.38;;;4.15;62.46
75317;BME280;63913;51.492;10.368;2023-03-29T01:06:45;98674.88;;;4.15;63.37
75317;BME280;63913;51.492;10.368;2023-03-29T01:09:15;98663.63;;;4.10;63.32
75317;BME280;63913;51.492;10.368;2023-03-29T01:11:50;98661.25;;;4.13;64.78
75317;BME280;63913;51.492;10.368;2023-03-29T01:14:18;98661.88;;;4.09;64.69
75317;BME280;63913;51.492;10.368;2023-03-29T01:16:45;98653.44;;;4.10;65.36
75317;BME280;63913;51.492;10.368;2023-03-29T01:19:14;98664.63;;;4.14;65.88
75317;BME280;63913;51.492;10.368;2023-03-29T01:21:48;98655.81;;;4.07;67.97
75317;BME280;63913;51.492;10.368;2023-03-29T01:25:08;98660.03;;;4.07;68.13
75317;BME280;63913;51.492;10.368;2023-03-29T01:27:46;98660.81;;;4.06;68.95
75317;BME280;63913;51.492;10.368;2023-03-29T01:30:18;98646.94;;;3.99;69.32
75317;BME280;63913;51.492;10.368;2023-03-29T01:32:50;98648.06;;;4.04;69.69
75317;BME280;63913;51.492;10.368;2023-03-29T01:35:25;98643.91;;;4.06;70.11
75317;BME280;63913;51.492;10.368;2023-03-29T01:38:04;98638.81;;;4.06;70.49
75317;BME280;63913;51.492;10.368;2023-03-29T01:40:32;98633.44;;;4.00;70.92
75317;BME280;63913;51.492;10.368;2023-03-29T01:43:32;98638.69;;;4.03;71.33
75317;BME280;63913;51.492;10.368;2023-03-29T01:46:13;98625.66;;;3.97;71.50
75317;BME280;63913;51.492;10.368;2023-03-29T01:48:58;98618.66;;;3.93;72.21
75317;BME280;63913;51.492;10.368;2023-03-29T01:52:19;98614.44;;;3.94;72.37
75317;BME280;63913;51.492;10.368;2023-03-29T01:54:50;98613.50;;;3.92;72.14
75317;BME280;63913;51.492;10.368;2023-03-29T01:57:20;98614.78;;;3.83;72.56
75317;BME280;63913;51.492;10.368;2023-03-29T01:59:50;98603.09;;;3.87;72.41
75317;BME280;63913;51.492;10.368;2023-03-29T02:02:17;98604.41;;;3.79;72.59
75317;BME280;63913;51.492;10.368;2023-03-29T02:04:51;98605.47;;;3.84;72.66
75317;BME280;63913;51.492;10.368;2023-03-29T02:07:21;98603.81;;;3.84;72.64
75317;BME280;63913;51.492;10.368;2023-03-29T02:09:50;98601.59;;;3.74;73.08
75317;BME280;63913;51.492;10.368;2023-03-29T02:12:17;98596.50;;;3.74;73.39
75317;BME280;63913;51.492;10.368;2023-03-29T02:14:42;98597.31;;;3.73;73.97
75317;BME280;63913;51.492;10.368;2023-03-29T02:17:24;98592.16;;;3.72;74.29
75317;BME280;63913;51.492;10.368;2023-03-29T02:20:01;98592.66;;;3.65;74.73
75317;BME280;63913;51.492;10.368;2023-03-29T02:22:42;98594.38;;;3.66;75.29
75317;BME280;63913;51.492;10.368;2023-03-29T02:25:13;98587.63;;;3.66;75.10
75317;BME280;63913;51.492;10.368;2023-03-29T02:27:40;98584.09;;;3.63;75.76
75317;BME280;63913;51.492;10.368;2023-03-29T02:30:08;98591.13;;;3.68;75.51
75317;BME280;63913;51.492;10.368;2023-03-29T02:32:45;98592.72;;;3.66;75.93
75317;BME280;63913;51.492;10.368;2023-03-29T02:35:19;98579.22;;;3.67;75.65
75317;BME280;63913;51.492;10.368;2023-03-29T02:37:47;98587.09;;;3.72;76.59
75317;BME280;63913;51.492;10.368;2023-03-29T02:40:16;98576.38;;;3.45;77.00
75317;BME280;63913;51.492;10.368;2023-03-29T02:42:43;98580.91;;;3.51;78.06
75317;BME280;63913;51.492;10.368;2023-03-29T02:45:11;98580.09;;;3.52;78.88
75317;BME280;63913;51.492;10.368;2023-03-29T02:47:44;98571.88;;;3.56;77.90
75317;BME280;63913;51.492;10.368;2023-03-29T02:50:10;98567.47;;;3.53;78.39
75317;BME280;63913;51.492;10.368;2023-03-29T02:52:38;98563.69;;;3.45;77.92
75317;BME280;63913;51.492;10.368;2023-03-29T02:55:08;98563.19;;;3.52;78.65
75317;BME280;63913;51.492;10.368;2023-03-29T02:57:38;98559.38;;;3.44;78.74
75317;BME280;63913;51.492;10.368;2023-03-29T03:00:06;98560.94;;;3.40;78.67
75317;BME280;63913;51.492;10.368;2023-03-29T03:02:34;98558.50;;;3.43;79.64
75317;BME280;63913;51.492;10.368;2023-03-29T03:05:02;98554.31;;;3.44;79.11
75317;BME280;63913;51.492;10.368;2023-03-29T03:07:28;98549.41;;;3.47;79.11
75317;BME280;63913;51.492;10.368;2023-03-29T03:09:54;98548.28;;;3.42;78.65
75317;BME280;63913;51.492;10.368;2023-03-29T03:12:19;98545.50;;;3.37;78.84
75317;BME280;63913;51.492;10.368;2023-03-29T03:14:45;98540.59;;;3.40;78.97
75317;BME280;63913;51.492;10.368;2023-03-29T03:17:10;98542.41;;;3.43;79.08
75317;BME280;63913;51.492;10.368;2023-03-29T03:19:35;98539.16;;;3.45;79.10
75317;BME280;63913;51.492;10.368;2023-03-29T03:22:01;98542.25;;;3.40;78.92
75317;BME280;63913;51.492;10.368;2023-03-29T03:24:27;98532.09;;;3.40;78.69
75317;BME280;63913;51.492;10.368;2023-03-29T03:26:52;98534.69;;;3.41;79.89
75317;BME280;63913;51.492;10.368;2023-03-29T03:29:18;98531.34;;;3.42;79.25
75317;BME280;63913;51.492;10.368;2023-03-29T03:32:15;98523.03;;;3.45;78.73
75317;BME280;63913;51.492;10.368;2023-03-29T03:35:03;98522.81;;;3.40;79.43
75317;BME280;63913;51.492;10.368;2023-03-29T03:37:30;98521.94;;;3.40;78.67
75317;BME280;63913;51.492;10.368;2023-03-29T03:39:56;98527.88;;;3.40;78.98
75317;BME280;63913;51.492;10.368;2023-03-29T03:42:22;98518.97;;;3.49;79.34
75317;BME280;63913;51.492;10.368;2023-03-29T03:44:47;98519.81;;;3.49;79.13
75317;BME280;63913;51.492;10.368;2023-03-29T03:47:45;98510.63;;;3.51;78.74
75317;BME280;63913;51.492;10.368;2023-03-29T03:50:26;98513.03;;;3.48;78.43
75317;BME280;63913;51.492;10.368;2023-03-29T03:52:52;98505.53;;;3.51;78.70
75317;BME280;63913;51.492;10.368;2023-03-29T03:55:18;98505.03;;;3.58;78.93
75317;BME280;63913;51.492;10.368;2023-03-29T03:58:09;98510.91;;;3.57;79.01
75317;BME280;63913;51.492;10.368;2023-03-29T04:00:35;98504.03;;;3.55;78.20
75317;BME280;63913;51.492;10.368;2023-03-29T04:03:23;98504.97;;;3.57;79.18
75317;BME280;63913;51.492;10.368;2023-03-29T04:05:49;98508.53;;;3.60;78.75
75317;BME280;63913;51.492;10.368;2023-03-29T04:08:16;98496.53;;;3.58;78.59
75317;BME280;63913;51.492;10.368;2023-03-29T04:11:00;98498.19;;;3.57;78.73
75317;BME280;63913;51.492;10.368;2023-03-29T04:13:34;98495.81;;;3.60;78.71
75317;BME280;63913;51.492;10.368;2023-03-29T04:16:18;98495.28;;;3.50;78.99
75317;BME280;63913;51.492;10.368;2023-03-29T04:18:45;98497.19;;;3.54;78.88
75317;BME280;63913;51.492;10.368;2023-03-29T04:21:11;98489.72;;;3.57;79.06
75317;BME280;63913;51.492;10.368;2023-03-29T04:23:36;98482.09;;;3.57;78.32
75317;BME280;63913;51.492;10.368;2023-03-29T04:26:02;98483.28;;;3.63;78.75
75317;BME280;63913;51.492;10.368;2023-03-29T04:28:46;98475.78;;;3.66;78.42
75317;BME280;63913;51.492;10.368;2023-03-29T04:31:19;98469.97;;;3.69;78.41
75317;BME280;63913;51.492;10.368;2023-03-29T04:34:08;98466.72;;;3.71;78.19
75317;BME280;63913;51.492;10.368;2023-03-29T04:36:33;98462.94;;;3.63;77.74
75317;BME280;63913;51.492;10.368;2023-03-29T04:38:59;98465.59;;;3.66;78.30
75317;BME280;63913;51.492;10.368;2023-03-29T04:41:26;98464.00;;;3.68;78.11
75317;BME280;63913;51.492;10.368;2023-03-29T04:44:02;98460.97;;;3.75;78.09
75317;BME280;63913;51.492;10.368;2023-03-29T04:46:29;98459.97;;;3.72;78.16
75317;BME280;63913;51.492;10.368;2023-03-29T04:49:15;98460.75;;;3.71;78.33
75317;BME280;63913;51.492;10.368;2023-03-29T04:51:44;98461.41;;;3.67;78.11
75317;BME280;63913;51.492;10.368;2023-03-29T04:54:10;98463.13;;;3.68;78.23
75317;BME280;63913;51.492;10.368;2023-03-29T04:57:08;98454.22;;;3.76;77.75
75317;BME280;63913;51.492;10.368;2023-03-29T04:59:53;98452.53;;;3.76;78.29
75317;BME280;63913;51.492;10.368;2023-03-29T05:02:42;98460.84;;;3.72;78.25
75317;BME280;63913;51.492;10.368;2023-03-29T05:05:09;98460.84;;;3.72;77.62
75317;BME280;63913;51.492;10.368;2023-03-29T05:07:35;98463.50;;;3.75;77.84
75317;BME280;63913;51.492;10.368;2023-03-29T05:10:01;98465.19;;;3.75;77.12
75317;BME280;63913;51.492;10.368;2023-03-29T05:12:27;98475.13;;;3.70;77.74
75317;BME280;63913;51.492;10.368;2023-03-29T05:14:53;98482.91;;;3.73;77.93
75317;BME280;63913;51.492;10.368;2023-03-29T05:17:21;98478.06;;;3.78;78.41
75317;BME280;63913;51.492;10.368;2023-03-29T05:19:47;98463.88;;;3.83;77.99
75317;BME280;63913;51.492;10.368;2023-03-29T05:22:13;98466.56;;;3.86;77.97
75317;BME280;63913;51.492;10.368;2023-03-29T05:24:39;98471.50;;;3.83;77.36
75317;BME280;63913;51.492;10.368;2023-03-29T05:27:11;98466.56;;;3.86;78.49
75317;BME280;63913;51.492;10.368;2023-03-29T05:29:38;98468.31;;;3.87;77.04
75317;BME280;63913;51.492;10.368;2023-03-29T05:32:22;98463.31;;;3.89;77.40
75317;BME280;63913;51.492;10.368;2023-03-29T05:34:48;98460.78;;;3.89;77.43
75317;BME280;63913;51.492;10.368;2023-03-29T05:37:14;98456.59;;;3.91;77.29
75317;BME280;63913;51.492;10.368;2023-03-29T05:39:54;98457.47;;;3.91;76.88
75317;BME280;63913;51.492;10.368;2023-03-29T05:42:25;98457.78;;;3.97;76.96
75317;BME280;63913;51.492;10.368;2023-03-29T05:45:05;98459.81;;;3.87;76.40
75317;BME280;63913;51.492;10.368;2023-03-29T05:47:31;98447.03;;;3.85;76.74
75317;BME280;63913;51.492;10.368;2023-03-29T05:49:57;98444.41;;;3.83;77.17
75317;BME280;63913;51.492;10.368;2023-03-29T05:52:22;98437.53;;;3.81;76.97
75317;BME280;63913;51.492;10.368;2023-03-29T05:54:49;98437.72;;;3.86;76.47
75317;BME280;63913;51.492;10.368;2023-03-29T05:57:14;98441.34;;;3.91;77.13
75317;BME280;63913;51.492;10.368;2023-03-29T05:59:40;98437.38;;;3.96;76.87
75317;BME280;63913;51.492;10.368;2023-03-29T06:02:07;98435.69;;;3.96;76.54
75317;BME280;63913;51.492;10.368;2023-03-29T06:04:36;98439.16;;;3.98;76.59
75317;BME280;63913;51.492;10.368;2023-03-29T06:07:14;98436.63;;;3.98;76.69
75317;BME280;63913;51.492;10.368;2023-03-29T06:09:44;98433.44;;;4.02;77.01
75317;BME280;63913;51.492;10.368;2023-03-29T06:12:09;98430.88;;;4.02;76.89
75317;BME280;63913;51.492;10.368;2023-03-29T06:14:46;98434.44;;;4.06;77.27
75317;BME280;63913;51.492;10.368;2023-03-29T06:17:28;98425.81;;;4.02;75.65
75317;BME280;63913;51.492;10.368;2023-03-29T06:19:53;98429.56;;;4.10;77.35
75317;BME280;63913;51.492;10.368;2023-03-29T06:22:22;98434.13;;;4.17;76.51
75317;BME280;63913;51.492;10.368;2023-03-29T06:24:48;98433.59;;;4.25;76.07
75317;BME280;63913;51.492;10.368;2023-03-29T06:27:26;98426.69;;;4.22;76.12
75317;BME280;63913;51.492;10.368;2023-03-29T06:29:53;98430.28;;;4.26;76.18
75317;BME280;63913;51.492;10.368;2023-03-29T06:32:18;98435.56;;;4.30;75.78
75317;BME280;63913;51.492;10.368;2023-03-29T06:34:50;98428.94;;;4.34;75.92
75317;BME280;63913;51.492;10.368;2023-03-29T06:37:22;98432.78;;;4.43;76.16
75317;BME280;63913;51.492;10.368;2023-03-29T06:39:54;98424.47;;;4.47;76.07
75317;BME280;63913;51.492;10.368;2023-03-29T06:42:24;98429.16;;;4.57;75.70
75317;BME280;63913;51.492;10.368;2023-03-29T06:45:19;98436.16;;;4.62;75.61
75317;BME280;63913;51.492;10.368;2023-03-29T06:47:47;98441.50;;;4.68;75.44
75317;BME280;63913;51.492;10.368;2023-03-29T06:50:12;98444.84;;;4.67;74.59
75317;BME280;63913;51.492;10.368;2023-03-29T06:52:59;98439.69;;;4.65;74.79
75317;BME280;63913;51.492;10.368;2023-03-29T06:55:24;98446.78;;;4.72;74.63
75317;BME280;63913;51.492;10.368;2023-03-29T06:57:53;98452.22;;;4.80;75.32
75317;BME280;63913;51.492;10.368;2023-03-29T07:00:19;98453.56;;;4.72;74.47
75317;BME280;63913;51.492;10.368;2023-03-29T07:03:24;98449.41;;;4.74;74.72
75317;BME280;63913;51.492;10.368;2023-03-29T07:05:52;98439.28;;;4.75;74.40
75317;BME280;63913;51.492;10.368;2023-03-29T07:08:25;98447.06;;;4.78;74.26
75317;BME280;63913;51.492;10.368;2023-03-29T07:10:57;98440.28;;;4.79;74.31
75317;BME280;63913;51.492;10.368;2023-03-29T07:13:49;98455.63;;;4.80;73.67
75317;BME280;63913;51.492;10.368;2023-03-29T07:16:18;98450.75;;;4.85;73.95
75317;BME280;63913;51.492;10.368;2023-03-29T07:18:48;98458.66;;;4.91;74.26
75317;BME280;63913;51.492;10.368;2023-03-29T07:21:25;98457.72;;;4.89;73.56
75317;BME280;63913;51.492;10.368;2023-03-29T07:23:53;98455.09;;;4.87;73.99
75317;BME280;63913;51.492;10.368;2023-03-29T07:26:18;98458.31;;;4.83;73.13
75317;BME280;63913;51.492;10.368;2023-03-29T07:28:48;98464.28;;;4.84;73.27
75317;BME280;63913;51.492;10.368;2023-03-29T07:31:14;98450.81;;;4.86;73.18
75317;BME280;63913;51.492;10.368;2023-03-29T07:33:45;98458.66;;;4.91;73.39
75317;BME280;63913;51.492;10.368;2023-03-29T07:36:13;98451.19;;;4.95;73.79
75317;BME280;63913;51.492;10.368;2023-03-29T07:38:40;98449.75;;;5.01;73.76
75317;BME280;63913;51.492;10.368;2023-03-29T07:41:11;98455.03;;;5.05;72.78
75317;BME280;63913;51.492;10.368;2023-03-29T07:43:49;98442.59;;;5.13;73.11
75317;BME280;63913;51.492;10.368;2023-03-29T07:46:19;98446.03;;;5.13;72.62
75317;BME280;63913;51.492;10.368;2023-03-29T07:48:45;98454.00;;;5.21;72.56
75317;BME280;63913;51.492;10.368;2023-03-29T07:51:12;98462.72;;;5.26;72.06
75317;BME280;63913;51.492;10.368;2023-03-29T07:53:47;98458.50;;;5.26;72.53
75317;BME280;63913;51.492;10.368;2023-03-29T07:56:31;98452.69;;;5.30;71.71
75317;BME280;63913;51.492;10.368;2023-03-29T07:59:16;98451.59;;;5.45;71.85
75317;BME280;63913;51.492;10.368;2023-03-29T08:01:43;98445.81;;;5.49;71.24
75317;BME280;63913;51.492;10.368;2023-03-29T08:04:18;98438.19;;;5.49;70.66
75317;BME280;63913;51.492;10.368;2023-03-29T08:07:03;98433.31;;;5.55;70.87
75317;BME280;63913;51.492;10.368;2023-03-29T08:09:48;98446.50;;;5.65;70.33
75317;BME280;63913;51.492;10.368;2023-03-29T08:12:14;98448.28;;;5.68;70.62
75317;BME280;63913;51.492;10.368;2023-03-29T08:14:39;98445.88;;;5.71;69.86
75317;BME280;63913;51.492;10.368;2023-03-29T08:17:12;98437.34;;;5.70;69.66
75317;BME280;63913;51.492;10.368;2023-03-29T08:19:43;98444.28;;;5.73;69.90
75317;BME280;63913;51.492;10.368;2023-03-29T08:22:08;98436.78;;;5.78;70.10
75317;BME280;63913;51.492;10.368;2023-03-29T08:25:07;98439.53;;;5.82;70.65
75317;BME280;63913;51.492;10.368;2023-03-29T08:27:38;98439.53;;;5.82;69.29
75317;BME280;63913;51.492;10.368;2023-03-29T08:30:06;98439.63;;;5.85;69.48
75317;BME280;63913;51.492;10.368;2023-03-29T08:32:35;98437.25;;;5.88;69.24
75317;BME280;63913;51.492;10.368;2023-03-29T08:35:02;98435.72;;;5.92;69.35
75317;BME280;63913;51.492;10.368;2023-03-29T08:37:35;98435.06;;;5.97;69.63
75317;BME280;63913;51.492;10.368;2023-03-29T08:40:02;98434.06;;;5.94;68.47
75317;BME280;63913;51.492;10.368;2023-03-29T08:43:19;98441.84;;;5.97;69.00
75317;BME280;63913;51.492;10.368;2023-03-29T08:49:03;98436.47;;;6.11;68.71
75317;BME280;63913;51.492;10.368;2023-03-29T08:51:44;98435.78;;;6.16;68.51
75317;BME280;63913;51.492;10.368;2023-03-29T08:54:15;98445.34;;;6.21;68.29
75317;BME280;63913;51.492;10.368;2023-03-29T08:57:23;98440.59;;;6.30;67.44
75317;BME280;63913;51.492;10.368;2023-03-29T08:59:57;98432.50;;;6.42;67.92
75317;BME280;63913;51.492;10.368;2023-03-29T09:02:26;98427.69;;;6.49;68.03
75317;BME280;63913;51.492;10.368;2023-03-29T09:05:23;98434.59;;;6.52;67.72
75317;BME280;63913;51.492;10.368;2023-03-29T09:08:15;98432.22;;;6.57;67.28
75317;BME280;63913;51.492;10.368;2023-03-29T09:10:45;98441.59;;;6.58;67.68
75317;BME280;63913;51.492;10.368;2023-03-29T09:13:18;98451.06;;;6.60;67.98
75317;BME280;63913;51.492;10.368;2023-03-29T09:15:51;98450.09;;;6.57;68.32
75317;BME280;63913;51.492;10.368;2023-03-29T09:21:00;98443.28;;;6.57;68.43
75317;BME280;63913;51.492;10.368;2023-03-29T09:26:49;98441.31;;;6.72;67.74
75317;BME280;63913;51.492;10.368;2023-03-29T09:32:30;98437.97;;;6.75;68.16
75317;BME280;63913;51.492;10.368;2023-03-29T09:35:13;98439.84;;;6.79;68.60
75317;BME280;63913;51.492;10.368;2023-03-29T09:37:43;98438.31;;;6.84;68.55
75317;BME280;63913;51.492;10.368;2023-03-29T09:40:18;98437.28;;;6.79;68.96
75317;BME280;63913;51.492;10.368;2023-03-29T09:42:54;98427.16;;;6.82;69.32
75317;BME280;63913;51.492;10.368;2023-03-29T09:45:21;98426.53;;;6.87;69.25
75317;BME280;63913;51.492;10.368;2023-03-29T09:47:53;98412.16;;;6.91;68.88
75317;BME280;63913;51.492;10.368;2023-03-29T09:50:39;98398.81;;;7.00;68.26
75317;BME280;63913;51.492;10.368;2023-03-29T09:53:08;98399.66;;;7.24;66.66
75317;BME280;63913;51.492;10.368;2023-03-29T09:55:37;98392.34;;;7.35;66.23
75317;BME280;63913;51.492;10.368;2023-03-29T09:58:25;98396.97;;;7.46;67.38
75317;BME280;63913;51.492;10.368;2023-03-29T10:00:56;98401.88;;;7.65;67.54
75317;BME280;63913;51.492;10.368;2023-03-29T10:03:29;98395.50;;;7.80;66.46
75317;BME280;63913;51.492;10.368;2023-03-29T10:06:05;98389.84;;;7.90;66.95
75317;BME280;63913;51.492;10.368;2023-03-29T10:11:01;98379.34;;;8.09;65.34
75317;BME280;63913;51.492;10.368;2023-03-29T10:13:32;98383.91;;;7.91;66.83
75317;BME280;63913;51.492;10.368;2023-03-29T10:18:24;98388.44;;;7.99;66.48
75317;BME280;63913;51.492;10.368;2023-03-29T10:21:00;98389.31;;;8.00;67.40
75317;BME280;63913;51.492;10.368;2023-03-29T10:23:34;98389.38;;;8.01;67.53
75317;BME280;63913;51.492;10.368;2023-03-29T10:26:05;98404.69;;;8.00;68.18
75317;BME280;63913;51.492;10.368;2023-03-29T10:28:33;98394.91;;;7.88;68.20
75317;BME280;63913;51.492;10.368;2023-03-29T10:31:01;98390.59;;;7.86;68.39
75317;BME280;63913;51.492;10.368;2023-03-29T10:33:33;98390.31;;;7.77;68.75
75317;BME280;63913;51.492;10.368;2023-03-29T10:35:59;98402.22;;;7.76;69.18
75317;BME280;63913;51.492;10.368;2023-03-29T10:38:27;98395.56;;;7.81;69.45
75317;BME280;63913;51.492;10.368;2023-03-29T10:41:01;98397.94;;;7.75;69.72
75317;BME280;63913;51.492;10.368;2023-03-29T10:43:34;98393.63;;;7.74;70.26
75317;BME280;63913;51.492;10.368;2023-03-29T10:46:10;98398.81;;;7.76;70.39
75317;BME280;63913;51.492;10.368;2023-03-29T10:48:37;98387.59;;;7.72;70.31
75317;BME280;63913;51.492;10.368;2023-03-29T10:51:04;98391.81;;;7.70;70.67
75317;BME280;63913;51.492;10.368;2023-03-29T10:53:33;98386.78;;;7.73;70.43
75317;BME280;63913;51.492;10.368;2023-03-29T10:59:12;98389.63;;;7.82;71.29
75317;BME280;63913;51.492;10.368;2023-03-29T11:01:54;98387.28;;;7.90;70.99
75317;BME280;63913;51.492;10.368;2023-03-29T11:07:30;98388.97;;;7.89;71.82
75317;BME280;63913;51.492;10.368;2023-03-29T11:24:15;98373.19;;;8.02;71.29
75317;BME280;63913;51.492;10.368;2023-03-29T11:29:21;98361.84;;;8.23;70.51
75317;BME280;63913;51.492;10.368;2023-03-29T11:32:04;98355.69;;;8.46;70.02
75317;BME280;63913;51.492;10.368;2023-03-29T11:34:48;98355.09;;;8.55;69.56
75317;BME280;63913;51.492;10.368;2023-03-29T11:37:44;98362.50;;;8.75;69.28
75317;BME280;63913;51.492;10.368;2023-03-29T11:43:11;98356.25;;;8.97;68.74
75317;BME280;63913;51.492;10.368;2023-03-29T11:45:46;98352.25;;;9.08;68.68
75317;BME280;63913;51.492;10.368;2023-03-29T11:48:27;98345.38;;;9.06;68.70
75317;BME280;63913;51.492;10.368;2023-03-29T11:51:02;98352.97;;;9.03;69.01
75317;BME280;63913;51.492;10.368;2023-03-29T11:53:35;98355.44;;;8.98;69.42
75317;BME280;63913;51.492;10.368;2023-03-29T11:56:11;98353.63;;;8.96;69.53
75317;BME280;63913;51.492;10.368;2023-03-29T11:58:40;98356.31;;;9.00;69.69
75317;BME280;63913;51.492;10.368;2023-03-29T12:01:13;98342.75;;;9.04;69.13
75317;BME280;63913;51.492;10.368;2023-03-29T12:03:54;98357.56;;;9.14;69.12
75317;BME280;63913;51.492;10.368;2023-03-29T12:06:25;98346.22;;;9.06;68.85
75317;BME280;63913;51.492;10.368;2023-03-29T12:08:54;98345.38;;;9.06;69.11
75317;BME280;63913;51.492;10.368;2023-03-29T12:13:54;98337.97;;;9.18;69.42
75317;BME280;63913;51.492;10.368;2023-03-29T12:16:26;98329.63;;;9.27;69.23
75317;BME280;63913;51.492;10.368;2023-03-29T12:18:55;98333.97;;;9.29;69.62
75317;BME280;63913;51.492;10.368;2023-03-29T12:21:23;98332.28;;;9.30;69.53
75317;BME280;63913;51.492;10.368;2023-03-29T12:23:51;98337.31;;;9.27;70.15
75317;BME280;63913;51.492;10.368;2023-03-29T12:38:21;98336.50;;;9.28;70.21
75317;BME280;63913;51.492;10.368;2023-03-29T12:41:18;98330.63;;;9.32;69.68
75317;BME280;63913;51.492;10.368;2023-03-29T12:44:12;98334.75;;;9.27;69.23
75317;BME280;63913;51.492;10.368;2023-03-29T12:46:45;98327.78;;;9.21;69.93
75317;BME280;63913;51.492;10.368;2023-03-29T12:49:31;98329.47;;;9.21;69.85
75317;BME280;63913;51.492;10.368;2023-03-29T12:51:58;98318.31;;;9.18;70.04
75317;BME280;63913;51.492;10.368;2023-03-29T12:54:31;98327.66;;;9.16;71.20
75317;BME280;63913;51.492;10.368;2023-03-29T12:56:59;98326.59;;;9.08;72.05
75317;BME280;63913;51.492;10.368;2023-03-29T13:02:00;98313.72;;;9.05;72.22
75317;BME280;63913;51.492;10.368;2023-03-29T13:04:47;98312.03;;;9.06;72.56
75317;BME280;63913;51.492;10.368;2023-03-29T13:09:54;98317.06;;;9.03;74.42
75317;BME280;63913;51.492;10.368;2023-03-29T13:12:37;98312.72;;;8.99;72.79
75317;BME280;63913;51.492;10.368;2023-03-29T13:15:26;98305.91;;;9.01;73.94
75317;BME280;63913;51.492;10.368;2023-03-29T13:18:01;98312.81;;;9.03;73.03
75317;BME280;63913;51.492;10.368;2023-03-29T13:20:46;98316.34;;;9.07;73.29
75317;BME280;63913;51.492;10.368;2023-03-29T13:23:43;98321.50;;;9.10;73.19
75317;BME280;63913;51.492;10.368;2023-03-29T13:34:27;98300.97;;;9.44;71.50
75317;BME280;63913;51.492;10.368;2023-03-29T13:39:57;98291.06;;;9.60;70.74
75317;BME280;63913;51.492;10.368;2023-03-29T13:45:30;98281.56;;;9.94;69.29
75317;BME280;63913;51.492;10.368;2023-03-29T13:48:01;98279.31;;;10.10;69.47
75317;BME280;63913;51.492;10.368;2023-03-29T13:50:36;98271.94;;;10.25;67.84
75317;BME280;63913;51.492;10.368;2023-03-29T13:53:08;98266.97;;;10.32;66.88
75317;BME280;63913;51.492;10.368;2023-03-29T13:55:42;98257.78;;;10.45;67.55
75317;BME280;63913;51.492;10.368;2023-03-29T14:01:12;98267.13;;;10.42;67.22
75317;BME280;63913;51.492;10.368;2023-03-29T14:03:45;98254.50;;;10.52;66.75
75317;BME280;63913;51.492;10.368;2023-03-29T14:06:17;98257.19;;;10.60;66.58
75317;BME280;63913;51.492;10.368;2023-03-29T14:08:43;98251.31;;;10.67;66.48
75317;BME280;63913;51.492;10.368;2023-03-29T14:11:22;98257.63;;;10.84;66.21
75317;BME280;63913;51.492;10.368;2023-03-29T14:13:53;98251.69;;;10.88;65.03
75317;BME280;63913;51.492;10.368;2023-03-29T14:16:19;98249.25;;;10.94;65.83
75317;BME280;63913;51.492;10.368;2023-03-29T14:18:45;98247.53;;;10.96;65.02
75317;BME280;63913;51.492;10.368;2023-03-29T14:21:16;98244.13;;;10.97;65.27
75317;BME280;63913;51.492;10.368;2023-03-29T14:23:44;98243.44;;;11.07;65.88
75317;BME280;63913;51.492;10.368;2023-03-29T14:26:14;98234.16;;;11.17;65.07
75317;BME280;63913;51.492;10.368;2023-03-29T14:28:50;98247.03;;;11.17;65.29
75317;BME280;63913;51.492;10.368;2023-03-29T14:31:24;98246.75;;;11.00;64.97
75317;BME280;63913;51.492;10.368;2023-03-29T14:33:55;98240.53;;;10.86;65.63
75317;BME280;63913;51.492;10.368;2023-03-29T14:36:21;98229.28;;;10.81;65.73
75317;BME280;63913;51.492;10.368;2023-03-29T14:38:49;98234.41;;;10.80;65.71
75317;BME280;63913;51.492;10.368;2023-03-29T14:41:15;98243.06;;;10.85;66.19
75317;BME280;63913;51.492;10.368;2023-03-29T14:43:42;98233.75;;;10.91;66.06
75317;BME280;63913;51.492;10.368;2023-03-29T14:46:08;98226.06;;;10.93;65.95
75317;BME280;63913;51.492;10.368;2023-03-29T14:48:35;98221.81;;;10.96;66.71
75317;BME280;63913;51.492;10.368;2023-03-29T14:51:00;98236.41;;;10.97;65.23